Time;durP1;ratioP1;P1;durP2;ratioP2;P2;SDS_P1;SDS_P2;PMS_P1;PMS_P2;Temp;Humidity;BMP_temperature;BMP_pressure;BME280_temperature;BME280_humidity;BME280_pressure;Samples;Min_cycle;Max_cycle;Signal;HPM_P1;HPM_P2
2024/02/24 00:01:53;;;;;;;1.03;0.87;;;6.60;99.90;;;;;;5041304;28;20208;-75
2024/02/24 00:04:19;;;;;;;1.60;1.10;;;6.50;99.90;;;;;;5043587;28;20216;-75
2024/02/24 00:06:45;;;;;;;2.30;1.00;;;6.50;99.90;;;;;;5046764;28;20212;-75
2024/02/24 00:09:10;;;;;;;0.93;0.93;;;6.60;99.90;;;;;;5031840;28;20220;-75
2024/02/24 00:11:39;;;;;;;2.23;1.30;;;6.70;99.90;;;;;;5053803;28;20224;-76
2024/02/24 00:14:04;;;;;;;2.23;1.53;;;6.70;99.90;;;;;;5054223;28;20267;-75
2024/02/24 00:16:30;;;;;;;3.47;2.40;;;6.70;99.90;;;;;;5040692;28;20446;-76
2024/02/24 00:18:59;;;;;;;3.10;1.90;;;6.70;99.90;;;;;;5022141;28;20816;-76
2024/02/24 00:21:25;;;;;;;6.40;2.00;;;6.70;99.90;;;;;;5039082;28;20208;-75
2024/02/24 00:23:50;;;;;;;1.63;1.50;;;6.70;99.90;;;;;;5038793;28;20463;-75
2024/02/24 00:26:16;;;;;;;4.90;2.17;;;6.70;99.90;;;;;;5037718;28;20461;-76
2024/02/24 00:28:42;;;;;;;4.97;2.30;;;6.70;99.90;;;;;;5043833;28;20220;-75
2024/02/24 00:31:07;;;;;;;2.13;1.60;;;6.70;99.90;;;;;;5037754;28;20276;-75
2024/02/24 00:33:33;;;;;;;2.27;1.83;;;6.70;99.90;;;;;;5042042;28;20320;-75
2024/02/24 00:36:00;;;;;;;1.83;1.73;;;6.60;99.90;;;;;;5035612;28;20222;-75
2024/02/24 00:38:26;;;;;;;1.37;1.27;;;6.70;99.90;;;;;;5043234;28;20231;-76
2024/02/24 00:40:51;;;;;;;2.27;1.50;;;6.70;99.90;;;;;;5043026;28;20945;-74
2024/02/24 00:43:17;;;;;;;4.13;1.70;;;6.70;99.90;;;;;;5036654;28;20219;-75
2024/02/24 00:45:43;;;;;;;1.80;1.40;;;6.60;99.90;;;;;;5041332;28;20227;-75
2024/02/24 00:48:08;;;;;;;1.90;1.40;;;6.60;99.90;;;;;;5037902;28;20230;-74
2024/02/24 00:50:34;;;;;;;2.23;1.40;;;6.60;99.90;;;;;;5025138;28;20827;-75
2024/02/24 00:52:59;;;;;;;1.73;1.43;;;6.60;99.90;;;;;;5039126;28;20208;-75
2024/02/24 00:55:25;;;;;;;1.20;1.10;;;6.50;99.90;;;;;;5044529;28;20605;-75
2024/02/24 00:57:51;;;;;;;1.60;1.50;;;6.40;99.90;;;;;;5042946;28;20243;-75
2024/02/24 01:00:19;;;;;;;0.80;0.80;;;6.40;99.90;;;;;;5037602;28;20318;-74
2024/02/24 01:02:46;;;;;;;1.07;0.90;;;6.20;99.90;;;;;;5057379;28;20230;-75
2024/02/24 01:05:11;;;;;;;0.73;0.53;;;6.10;99.90;;;;;;5021833;28;20544;-75
2024/02/24 01:07:37;;;;;;;0.67;0.67;;;6.10;99.90;;;;;;5043055;28;20542;-75
2024/02/24 01:10:03;;;;;;;1.50;0.87;;;6.00;99.90;;;;;;5036771;28;20227;-75
2024/02/24 01:12:29;;;;;;;1.63;0.80;;;6.20;99.90;;;;;;5042377;28;20219;-75
2024/02/24 01:14:54;;;;;;;0.60;0.60;;;6.20;99.90;;;;;;5039533;28;20474;-75
2024/02/24 01:17:20;;;;;;;1.00;0.67;;;6.20;99.90;;;;;;5040854;28;20691;-75
2024/02/24 01:19:46;;;;;;;1.30;0.93;;;6.30;99.90;;;;;;5041218;28;20225;-75
2024/02/24 01:22:13;;;;;;;0.70;0.50;;;6.30;99.90;;;;;;5036304;28;20306;-75
2024/02/24 01:24:39;;;;;;;0.70;0.50;;;6.40;99.90;;;;;;5042276;28;20211;-75
2024/02/24 01:27:05;;;;;;;0.60;0.60;;;6.40;99.90;;;;;;5035363;28;20469;-75
2024/02/24 01:29:31;;;;;;;0.40;0.40;;;6.50;99.90;;;;;;5041425;28;20223;-75
2024/02/24 01:32:00;;;;;;;0.60;0.60;;;6.50;99.90;;;;;;5037102;28;20299;-75
2024/02/24 01:34:29;;;;;;;0.60;0.50;;;6.50;99.90;;;;;;5039737;28;20470;-75
2024/02/24 01:36:55;;;;;;;0.90;0.70;;;6.50;99.90;;;;;;5039887;28;20478;-75
2024/02/24 01:39:21;;;;;;;0.40;0.40;;;6.50;99.90;;;;;;5057455;28;20552;-75
2024/02/24 01:41:46;;;;;;;1.50;0.70;;;6.50;99.90;;;;;;5040409;28;20893;-75
2024/02/24 01:44:18;;;;;;;0.70;0.70;;;6.30;99.90;;;;;;5037869;28;20216;-75
2024/02/24 01:46:47;;;;;;;0.60;0.60;;;6.30;99.90;;;;;;5043985;28;20247;-75
2024/02/24 01:49:13;;;;;;;1.30;0.63;;;6.30;99.90;;;;;;5035272;28;20527;-75
2024/02/24 01:51:40;;;;;;;0.57;0.57;;;6.40;99.90;;;;;;5039345;28;20458;-75
2024/02/24 01:54:06;;;;;;;0.63;0.47;;;6.40;99.90;;;;;;5037053;28;20463;-75
2024/02/24 01:56:33;;;;;;;0.40;0.30;;;6.40;99.90;;;;;;5041832;28;20546;-75
2024/02/24 01:58:59;;;;;;;0.97;0.50;;;6.40;99.90;;;;;;5035790;28;20462;-75
2024/02/24 02:01:25;;;;;;;4.00;0.80;;;6.40;99.90;;;;;;5036982;28;20458;-75
2024/02/24 02:03:54;;;;;;;0.70;0.60;;;6.50;99.90;;;;;;5053552;28;20537;-75
2024/02/24 02:06:22;;;;;;;0.67;0.67;;;6.50;99.90;;;;;;5043773;28;20537;-76
2024/02/24 02:08:47;;;;;;;0.70;0.70;;;6.40;99.90;;;;;;5046414;28;20216;-75
2024/02/24 02:11:13;;;;;;;2.10;0.70;;;6.40;99.90;;;;;;5020776;28;20523;-75
2024/02/24 02:13:38;;;;;;;1.07;0.90;;;6.40;99.90;;;;;;5040130;28;20307;-75
2024/02/24 02:16:05;;;;;;;2.03;0.90;;;6.40;99.90;;;;;;5036192;28;20219;-75
2024/02/24 02:18:30;;;;;;;0.67;0.57;;;6.40;99.90;;;;;;5038525;28;20213;-75
2024/02/24 02:20:59;;;;;;;0.67;0.67;;;6.40;99.90;;;;;;5035518;28;20513;-75
2024/02/24 02:23:24;;;;;;;0.80;0.80;;;6.40;99.90;;;;;;5024142;28;20252;-75
2024/02/24 02:25:50;;;;;;;0.50;0.50;;;6.40;99.90;;;;;;5039487;28;20450;-76
2024/02/24 02:28:16;;;;;;;1.17;0.70;;;6.40;99.90;;;;;;5035040;28;20293;-75
2024/02/24 02:30:41;;;;;;;0.87;0.73;;;6.30;99.90;;;;;;5040996;28;20214;-75
2024/02/24 02:33:08;;;;;;;1.07;0.60;;;6.40;99.90;;;;;;5035683;28;20211;-75
2024/02/24 02:35:34;;;;;;;1.87;0.60;;;6.30;99.90;;;;;;5038003;28;20224;-75
2024/02/24 02:38:00;;;;;;;0.70;0.70;;;6.30;99.90;;;;;;5037251;28;20446;-75
2024/02/24 02:40:26;;;;;;;0.97;0.87;;;6.30;99.90;;;;;;5040653;28;20998;-75
2024/02/24 02:42:52;;;;;;;0.60;0.60;;;6.30;99.90;;;;;;5038617;28;20461;-75
2024/02/24 02:45:18;;;;;;;1.23;0.80;;;6.30;99.90;;;;;;5039155;28;20557;-75
2024/02/24 02:47:43;;;;;;;1.20;0.73;;;6.30;99.90;;;;;;5041315;28;20302;-76
2024/02/24 02:50:09;;;;;;;0.60;0.50;;;6.30;99.90;;;;;;5036748;28;20231;-74
2024/02/24 02:52:35;;;;;;;0.70;0.70;;;6.30;99.90;;;;;;5039100;28;20230;-75
2024/02/24 02:55:01;;;;;;;0.80;0.80;;;6.20;99.90;;;;;;5039957;28;20282;-75
2024/02/24 02:57:27;;;;;;;0.63;0.63;;;6.20;99.90;;;;;;5041986;28;20228;-75
2024/02/24 02:59:52;;;;;;;0.97;0.70;;;6.20;99.90;;;;;;5024931;28;21047;-74
2024/02/24 03:02:18;;;;;;;0.80;0.80;;;6.20;99.90;;;;;;5037220;28;20227;-74
2024/02/24 03:04:44;;;;;;;0.77;0.70;;;6.20;99.90;;;;;;5041384;28;20223;-75
2024/02/24 03:07:09;;;;;;;0.50;0.50;;;6.20;99.90;;;;;;5037396;28;20218;-74
2024/02/24 03:09:35;;;;;;;0.80;0.67;;;6.20;99.90;;;;;;5022848;28;20605;-74
2024/02/24 03:12:01;;;;;;;0.70;0.70;;;6.20;99.90;;;;;;5036789;28;20246;-74
2024/02/24 03:14:27;;;;;;;1.10;0.70;;;6.20;99.90;;;;;;5038771;28;20228;-74
2024/02/24 03:16:54;;;;;;;0.80;0.70;;;6.20;99.90;;;;;;5039946;28;20216;-74
2024/02/24 03:19:19;;;;;;;1.63;0.80;;;6.20;99.90;;;;;;5035857;28;20478;-74
2024/02/24 03:21:45;;;;;;;0.70;0.70;;;6.10;99.90;;;;;;5037691;28;20458;-74
2024/02/24 03:24:11;;;;;;;0.60;0.60;;;6.10;99.90;;;;;;5036019;28;20598;-75
2024/02/24 03:26:39;;;;;;;0.47;0.47;;;6.10;99.90;;;;;;5039381;28;20558;-75
2024/02/24 03:29:04;;;;;;;0.60;0.60;;;6.10;99.90;;;;;;5039703;28;20569;-75
2024/02/24 03:31:30;;;;;;;2.87;0.80;;;6.10;99.90;;;;;;5040193;28;20462;-75
2024/02/24 03:33:56;;;;;;;0.70;0.70;;;6.00;99.90;;;;;;5020603;28;20260;-73
2024/02/24 03:36:22;;;;;;;1.43;0.70;;;6.00;99.90;;;;;;5035210;28;20659;-74
2024/02/24 03:38:47;;;;;;;0.90;0.60;;;6.00;99.90;;;;;;5035580;28;20220;-74
2024/02/24 03:41:13;;;;;;;1.13;0.67;;;6.00;99.90;;;;;;5025211;28;20303;-74
2024/02/24 03:43:39;;;;;;;1.30;0.80;;;6.00;99.90;;;;;;5035962;28;20228;-74
2024/02/24 03:46:05;;;;;;;0.70;0.70;;;6.00;99.90;;;;;;5020962;28;20244;-74
2024/02/24 03:48:32;;;;;;;1.00;0.80;;;5.90;99.90;;;;;;5051170;28;20213;-74
2024/02/24 03:50:59;;;;;;;0.97;0.70;;;6.00;99.90;;;;;;5035954;28;20454;-74
2024/02/24 03:53:26;;;;;;;0.77;0.77;;;6.00;99.90;;;;;;5041982;28;20456;-74
2024/02/24 03:55:52;;;;;;;0.70;0.50;;;5.90;99.90;;;;;;5042537;28;20463;-74
2024/02/24 03:58:18;;;;;;;2.20;1.00;;;5.80;99.90;;;;;;5037671;28;20995;-74
2024/02/24 04:00:44;;;;;;;0.63;0.60;;;5.80;99.90;;;;;;5039077;28;20480;-75
2024/02/24 04:03:10;;;;;;;2.73;1.30;;;5.70;99.90;;;;;;5039328;28;21018;-74
2024/02/24 04:05:37;;;;;;;1.10;0.60;;;5.80;99.90;;;;;;5043512;28;20723;-74
2024/02/24 04:08:03;;;;;;;2.83;0.80;;;5.80;99.90;;;;;;5040887;28;21021;-73
2024/02/24 04:10:29;;;;;;;0.70;0.57;;;5.80;99.90;;;;;;5026406;28;20466;-75
2024/02/24 04:12:55;;;;;;;0.93;0.60;;;5.80;99.90;;;;;;5039214;28;20486;-72
2024/02/24 04:15:22;;;;;;;1.30;1.10;;;5.90;99.90;;;;;;5039243;28;20486;-74
2024/02/24 04:17:48;;;;;;;1.57;1.10;;;5.90;99.90;;;;;;5041165;28;20466;-74
2024/02/24 04:20:14;;;;;;;1.27;0.97;;;5.90;99.90;;;;;;5041990;28;20494;-74
2024/02/24 04:22:40;;;;;;;1.00;0.80;;;5.80;99.90;;;;;;5039608;28;20481;-74
2024/02/24 04:25:07;;;;;;;1.17;0.90;;;5.80;99.90;;;;;;5041462;28;20566;-74
2024/02/24 04:27:33;;;;;;;3.93;1.27;;;5.70;99.90;;;;;;5045477;28;20207;-75
2024/02/24 04:29:58;;;;;;;3.00;1.20;;;5.80;99.90;;;;;;5040578;28;20462;-75
2024/02/24 04:32:24;;;;;;;1.30;1.03;;;5.80;99.90;;;;;;5040236;28;20220;-75
2024/02/24 04:34:50;;;;;;;1.60;1.00;;;5.80;99.90;;;;;;5045730;28;20232;-75
2024/02/24 04:37:16;;;;;;;1.27;0.90;;;5.80;99.90;;;;;;5037209;28;20247;-75
2024/02/24 04:39:41;;;;;;;1.03;0.70;;;5.80;99.90;;;;;;5059086;28;20721;-75
2024/02/24 04:42:07;;;;;;;1.53;1.20;;;5.80;99.90;;;;;;5054524;28;20463;-75
2024/02/24 04:44:33;;;;;;;2.83;1.20;;;5.80;99.90;;;;;;5042376;28;20204;-75
2024/02/24 04:46:59;;;;;;;1.13;0.97;;;5.80;99.90;;;;;;5041980;28;20220;-75
2024/02/24 04:49:24;;;;;;;1.47;0.97;;;5.80;99.90;;;;;;5041070;28;20223;-74
2024/02/24 04:51:50;;;;;;;2.10;1.33;;;5.80;99.90;;;;;;5041776;28;20629;-75
2024/02/24 04:54:18;;;;;;;1.20;1.10;;;5.80;99.90;;;;;;5053223;28;20262;-75
2024/02/24 04:56:44;;;;;;;1.70;1.07;;;5.80;99.90;;;;;;5045107;28;20228;-75
2024/02/24 04:59:10;;;;;;;0.97;0.87;;;5.70;99.90;;;;;;5039128;28;20467;-75
2024/02/24 05:01:35;;;;;;;2.13;1.20;;;5.70;99.90;;;;;;5043082;28;20236;-74
2024/02/24 05:04:02;;;;;;;1.77;0.97;;;5.70;99.90;;;;;;5037141;28;20220;-74
2024/02/24 05:06:28;;;;;;;1.97;1.20;;;5.70;99.90;;;;;;5039162;28;20211;-75
2024/02/24 05:08:54;;;;;;;1.43;0.80;;;5.70;99.90;;;;;;5041729;28;20454;-74
2024/02/24 05:11:20;;;;;;;5.77;1.13;;;5.70;99.90;;;;;;5028001;28;20932;-75
2024/02/24 05:13:46;;;;;;;1.23;1.10;;;5.70;99.90;;;;;;5044119;28;20482;-75
2024/02/24 05:16:13;;;;;;;1.37;0.93;;;5.70;99.90;;;;;;5034990;28;20616;-75
2024/02/24 05:18:39;;;;;;;5.00;1.20;;;5.70;99.90;;;;;;5038905;28;20216;-75
2024/02/24 05:21:04;;;;;;;1.27;0.90;;;5.70;99.90;;;;;;5032266;28;20467;-75
2024/02/24 05:23:30;;;;;;;1.30;1.20;;;5.70;99.90;;;;;;5037781;28;20223;-75
2024/02/24 05:25:56;;;;;;;1.10;0.90;;;5.70;99.90;;;;;;5024540;28;20222;-75
2024/02/24 05:28:21;;;;;;;1.00;0.80;;;5.70;99.90;;;;;;5038846;28;20230;-75
2024/02/24 05:30:47;;;;;;;1.27;1.00;;;5.70;99.90;;;;;;5040173;28;20229;-75
2024/02/24 05:33:13;;;;;;;0.97;0.97;;;5.70;99.90;;;;;;5036314;28;20313;-75
2024/02/24 05:35:39;;;;;;;1.33;1.00;;;5.70;99.90;;;;;;5044119;28;20310;-75
2024/02/24 05:38:05;;;;;;;0.80;0.80;;;5.70;99.90;;;;;;5035698;28;20557;-74
2024/02/24 05:40:31;;;;;;;0.63;0.63;;;5.60;99.90;;;;;;5040616;28;20213;-75
2024/02/24 05:42:56;;;;;;;0.77;0.70;;;5.60;99.90;;;;;;5039922;28;20222;-74
2024/02/24 05:45:22;;;;;;;0.73;0.70;;;5.40;99.90;;;;;;5036878;28;20240;-75
2024/02/24 05:47:47;;;;;;;1.53;0.60;;;5.50;99.90;;;;;;5045529;28;20220;-75
2024/02/24 05:50:13;;;;;;;0.90;0.60;;;5.50;99.90;;;;;;5038226;28;20235;-75
2024/02/24 05:52:39;;;;;;;1.20;0.93;;;5.60;99.90;;;;;;5039590;28;20228;-75
2024/02/24 05:55:07;;;;;;;0.57;0.57;;;5.60;99.90;;;;;;5040111;28;20226;-75
2024/02/24 05:57:33;;;;;;;0.73;0.73;;;5.60;99.90;;;;;;5039075;28;20213;-74
2024/02/24 05:59:59;;;;;;;0.83;0.83;;;5.50;99.90;;;;;;5033874;28;20466;-75
2024/02/24 06:02:25;;;;;;;0.80;0.70;;;5.50;99.90;;;;;;5054103;28;20314;-75
2024/02/24 06:04:51;;;;;;;0.63;0.63;;;5.50;99.90;;;;;;5056990;28;20459;-75
2024/02/24 06:07:16;;;;;;;0.90;0.77;;;5.50;99.90;;;;;;5034518;28;20463;-75
2024/02/24 06:09:42;;;;;;;1.27;0.80;;;5.50;99.90;;;;;;5039138;28;20220;-75
2024/02/24 06:12:08;;;;;;;0.53;0.53;;;5.60;99.90;;;;;;5036520;28;20244;-75
2024/02/24 06:14:34;;;;;;;0.73;0.70;;;5.60;99.90;;;;;;5039366;28;20236;-76
2024/02/24 06:17:00;;;;;;;1.07;0.87;;;5.60;99.90;;;;;;5039679;28;20717;-75
2024/02/24 06:19:26;;;;;;;0.53;0.53;;;5.60;99.90;;;;;;5037387;28;20450;-75
2024/02/24 06:21:51;;;;;;;0.80;0.60;;;5.50;99.90;;;;;;5040522;28;20799;-75
2024/02/24 06:24:17;;;;;;;1.53;0.83;;;5.50;99.90;;;;;;5036957;28;20764;-75
2024/02/24 06:26:43;;;;;;;1.20;0.70;;;5.50;99.90;;;;;;5039264;28;20246;-75
2024/02/24 06:29:08;;;;;;;0.93;0.70;;;5.50;99.90;;;;;;5044030;28;20779;-74
2024/02/24 06:31:34;;;;;;;0.60;0.57;;;5.50;99.90;;;;;;5061105;28;20224;-75
2024/02/24 06:34:00;;;;;;;0.60;0.60;;;5.50;99.90;;;;;;5040815;28;20320;-74
2024/02/24 06:36:25;;;;;;;1.13;0.50;;;5.40;99.90;;;;;;5030651;28;20226;-74
2024/02/24 06:38:51;;;;;;;0.90;0.70;;;5.40;99.90;;;;;;5032875;28;20222;-75
2024/02/24 06:41:18;;;;;;;0.63;0.63;;;5.40;99.90;;;;;;5043044;28;20265;-75
2024/02/24 06:43:44;;;;;;;1.00;0.87;;;5.40;99.90;;;;;;5045843;28;20215;-75
2024/02/24 06:46:11;;;;;;;0.80;0.73;;;5.40;99.90;;;;;;5044603;28;20509;-74
2024/02/24 06:48:37;;;;;;;1.03;0.80;;;5.40;99.90;;;;;;5043992;28;20542;-74
2024/02/24 06:51:04;;;;;;;1.83;1.00;;;5.40;99.90;;;;;;5044189;28;20541;-75
2024/02/24 06:53:29;;;;;;;0.80;0.60;;;5.40;99.90;;;;;;5043174;28;20203;-75
2024/02/24 06:55:55;;;;;;;0.70;0.70;;;5.40;99.90;;;;;;5045466;28;20601;-75
2024/02/24 06:58:21;;;;;;;1.00;0.90;;;5.40;99.90;;;;;;5042683;28;20235;-75
2024/02/24 07:00:47;;;;;;;0.60;0.60;;;5.40;99.90;;;;;;5042984;28;20672;-75
2024/02/24 07:03:13;;;;;;;1.00;0.90;;;5.40;99.90;;;;;;5042531;28;20447;-75
2024/02/24 07:05:38;;;;;;;0.83;0.83;;;5.40;99.90;;;;;;5044253;28;20554;-76
2024/02/24 07:08:04;;;;;;;1.90;0.73;;;5.40;99.90;;;;;;5044909;28;20225;-75
2024/02/24 07:10:30;;;;;;;0.60;0.60;;;5.40;99.90;;;;;;5045119;28;20658;-75
2024/02/24 07:12:55;;;;;;;0.83;0.83;;;5.40;99.90;;;;;;5047466;28;20705;-75
2024/02/24 07:15:23;;;;;;;1.13;0.80;;;5.40;99.90;;;;;;5043700;28;20223;-75
2024/02/24 07:17:48;;;;;;;0.80;0.60;;;5.40;99.90;;;;;;5044366;28;20314;-75
2024/02/24 07:20:14;;;;;;;0.90;0.60;;;5.40;99.90;;;;;;5042040;28;20566;-75
2024/02/24 07:22:41;;;;;;;0.90;0.90;;;5.40;99.90;;;;;;5030411;28;20275;-75
2024/02/24 07:25:08;;;;;;;0.67;0.67;;;5.40;99.90;;;;;;5044173;28;20246;-75
2024/02/24 07:27:34;;;;;;;0.90;0.90;;;5.50;99.90;;;;;;5044963;28;20453;-75
2024/02/24 07:30:00;;;;;;;1.03;0.77;;;5.50;99.90;;;;;;5053103;28;20466;-75
2024/02/24 07:32:26;;;;;;;0.80;0.80;;;5.50;99.90;;;;;;5050282;28;20479;-75
2024/02/24 07:34:51;;;;;;;0.70;0.70;;;5.50;99.90;;;;;;5049056;28;20647;-75
2024/02/24 07:37:17;;;;;;;3.40;0.60;;;5.50;99.90;;;;;;5048129;28;20832;-76
2024/02/24 07:39:43;;;;;;;0.60;0.60;;;5.50;99.90;;;;;;5051056;28;20220;-75
2024/02/24 07:42:09;;;;;;;1.33;0.77;;;5.50;99.90;;;;;;5046710;28;20224;-75
2024/02/24 07:44:35;;;;;;;0.60;0.50;;;5.60;99.90;;;;;;5049393;28;20993;-75
2024/02/24 07:47:01;;;;;;;0.73;0.73;;;5.60;99.90;;;;;;5052005;28;20250;-75
2024/02/24 07:49:27;;;;;;;0.60;0.60;;;5.70;99.90;;;;;;5050955;28;20698;-75
2024/02/24 07:51:53;;;;;;;0.87;0.80;;;5.70;99.90;;;;;;5034820;28;20460;-75
2024/02/24 07:54:18;;;;;;;0.50;0.50;;;5.70;99.90;;;;;;5046332;28;20375;-75
2024/02/24 07:56:44;;;;;;;0.60;0.60;;;5.80;99.90;;;;;;5048417;28;20454;-75
2024/02/24 07:59:10;;;;;;;1.03;0.50;;;5.80;99.90;;;;;;5046375;28;20691;-75
2024/02/24 08:01:35;;;;;;;1.13;1.07;;;5.70;99.90;;;;;;5063291;28;20212;-75
2024/02/24 08:04:01;;;;;;;0.80;0.70;;;5.80;99.90;;;;;;5055394;28;20214;-75
2024/02/24 08:06:29;;;;;;;0.63;0.60;;;5.80;99.90;;;;;;5049879;28;20788;-75
2024/02/24 08:08:54;;;;;;;1.13;0.50;;;5.80;99.90;;;;;;5048724;28;20877;-75
2024/02/24 08:11:20;;;;;;;0.40;0.40;;;5.80;99.90;;;;;;5047248;28;20443;-75
2024/02/24 08:13:46;;;;;;;0.70;0.70;;;5.70;99.90;;;;;;5049602;28;20585;-75
2024/02/24 08:16:11;;;;;;;0.60;0.60;;;5.70;99.90;;;;;;5046441;28;20681;-74
2024/02/24 08:18:38;;;;;;;0.50;0.40;;;5.70;99.90;;;;;;5050435;28;20213;-75
2024/02/24 08:21:08;;;;;;;0.63;0.50;;;5.70;99.90;;;;;;5045309;28;20212;-75
2024/02/24 08:23:36;;;;;;;0.50;0.40;;;5.70;99.90;;;;;;5045441;28;20447;-75
2024/02/24 08:26:03;;;;;;;0.50;0.50;;;5.70;99.90;;;;;;5047051;28;20452;-74
2024/02/24 08:28:29;;;;;;;0.60;0.60;;;5.70;99.90;;;;;;5044889;28;20486;-75
2024/02/24 08:30:55;;;;;;;0.67;0.47;;;5.70;99.90;;;;;;5048988;28;21141;-75
2024/02/24 08:33:22;;;;;;;2.00;0.40;;;5.60;99.90;;;;;;5046111;28;20445;-75
2024/02/24 08:35:52;;;;;;;0.70;0.60;;;5.60;99.90;;;;;;5043494;28;20486;-75
2024/02/24 08:38:18;;;;;;;0.43;0.43;;;5.70;99.90;;;;;;5044566;28;20478;-75
2024/02/24 08:40:44;;;;;;;0.60;0.50;;;5.70;99.90;;;;;;5043666;28;20909;-75
2024/02/24 08:43:10;;;;;;;0.63;0.53;;;5.60;99.90;;;;;;5032040;28;20463;-75
2024/02/24 08:45:36;;;;;;;0.50;0.50;;;5.70;99.90;;;;;;5051701;28;20457;-75
2024/02/24 08:48:02;;;;;;;1.00;0.80;;;5.70;99.90;;;;;;5045985;28;20542;-75
2024/02/24 08:50:28;;;;;;;1.00;0.53;;;5.80;99.90;;;;;;5046944;28;20228;-74
2024/02/24 08:52:53;;;;;;;0.50;0.40;;;5.70;99.90;;;;;;5045494;28;20251;-75
2024/02/24 08:55:19;;;;;;;0.40;0.30;;;5.80;99.90;;;;;;5046479;28;20240;-75
2024/02/24 08:57:45;;;;;;;0.40;0.40;;;5.80;99.90;;;;;;5050264;28;20238;-75
2024/02/24 09:00:12;;;;;;;0.67;0.40;;;5.80;99.90;;;;;;5028012;28;20224;-75
2024/02/24 09:02:38;;;;;;;0.40;0.40;;;5.90;99.90;;;;;;5045911;28;20471;-76
2024/02/24 09:05:04;;;;;;;0.77;0.40;;;6.00;99.90;;;;;;5059885;28;20848;-73
2024/02/24 09:07:30;;;;;;;0.40;0.30;;;6.00;99.90;;;;;;5045855;28;20459;-75
2024/02/24 09:09:55;;;;;;;0.60;0.60;;;6.10;99.90;;;;;;5046676;28;20242;-74
2024/02/24 09:12:21;;;;;;;0.40;0.40;;;6.10;99.90;;;;;;5028758;28;20239;-75
2024/02/24 09:14:46;;;;;;;1.77;0.57;;;6.10;99.90;;;;;;5029134;28;20727;-75
2024/02/24 09:17:12;;;;;;;1.43;0.63;;;6.20;99.90;;;;;;5025827;28;20571;-75
2024/02/24 09:19:38;;;;;;;2.23;0.50;;;6.20;99.90;;;;;;5030442;28;20216;-75
2024/02/24 09:22:03;;;;;;;0.60;0.60;;;6.30;99.90;;;;;;5045558;28;20220;-75
2024/02/24 09:24:29;;;;;;;0.40;0.40;;;6.40;99.90;;;;;;5044228;28;20227;-75
2024/02/24 09:26:55;;;;;;;0.40;0.40;;;6.50;99.90;;;;;;5031269;28;20219;-75
2024/02/24 09:29:22;;;;;;;1.23;0.70;;;6.60;99.90;;;;;;5042892;28;20220;-74
2024/02/24 09:31:47;;;;;;;1.00;0.90;;;6.60;99.90;;;;;;5041833;28;20701;-76
2024/02/24 09:34:14;;;;;;;0.90;0.87;;;6.70;99.90;;;;;;5043492;28;20474;-76
2024/02/24 09:36:40;;;;;;;1.90;1.30;;;6.80;99.90;;;;;;5046401;28;20280;-77
2024/02/24 09:39:06;;;;;;;1.40;1.10;;;6.90;99.90;;;;;;5044787;28;20467;-76
2024/02/24 09:41:31;;;;;;;1.20;1.10;;;7.00;99.90;;;;;;5046133;28;20211;-76
2024/02/24 09:43:57;;;;;;;1.00;1.00;;;7.00;99.90;;;;;;5039214;28;20219;-77
2024/02/24 09:46:23;;;;;;;1.20;1.10;;;7.00;99.90;;;;;;5039589;28;20228;-77
2024/02/24 09:48:49;;;;;;;0.97;0.87;;;7.00;99.90;;;;;;5043577;28;20221;-76
2024/02/24 09:51:15;;;;;;;2.60;2.40;;;7.00;99.90;;;;;;5034825;28;20218;-76
2024/02/24 09:53:41;;;;;;;13.30;9.30;;;7.00;99.90;;;;;;5038706;28;21000;-77
2024/02/24 09:56:07;;;;;;;8.60;6.53;;;7.00;99.90;;;;;;5037679;28;20215;-75
2024/02/24 09:58:34;;;;;;;5.33;3.23;;;7.00;99.90;;;;;;5038317;28;20220;-76
2024/02/24 10:00:59;;;;;;;4.13;3.73;;;7.00;99.90;;;;;;5032975;28;20220;-75
2024/02/24 10:03:27;;;;;;;9.27;8.27;;;7.00;99.90;;;;;;5037021;28;20480;-75
2024/02/24 10:05:53;;;;;;;9.80;8.50;;;6.90;99.90;;;;;;5037392;28;20227;-76
2024/02/24 10:08:19;;;;;;;6.47;5.30;;;6.90;99.90;;;;;;5034986;28;20450;-75
2024/02/24 10:10:44;;;;;;;4.13;3.20;;;6.90;99.90;;;;;;5036545;28;20261;-75
2024/02/24 10:13:10;;;;;;;3.33;3.03;;;6.80;99.90;;;;;;5017689;28;20474;-75
2024/02/24 10:15:36;;;;;;;2.90;2.50;;;6.80;99.90;;;;;;5038281;28;20277;-75
2024/02/24 10:18:02;;;;;;;1.90;1.80;;;6.90;99.90;;;;;;5036473;28;20243;-75
2024/02/24 10:20:29;;;;;;;2.43;2.23;;;6.90;99.90;;;;;;5038909;28;20910;-75
2024/02/24 10:22:55;;;;;;;1.07;1.07;;;6.90;99.90;;;;;;5038475;28;20602;-75
2024/02/24 10:25:21;;;;;;;2.27;1.00;;;6.90;99.90;;;;;;5033980;28;20592;-75
2024/02/24 10:27:48;;;;;;;1.00;1.00;;;6.90;99.90;;;;;;5037940;28;20527;-75
2024/02/24 10:30:14;;;;;;;2.23;1.30;;;7.00;99.90;;;;;;5017629;28;20220;-75
2024/02/24 10:32:43;;;;;;;1.33;0.90;;;7.00;99.90;;;;;;5040946;28;20477;-75
2024/02/24 10:35:10;;;;;;;2.10;1.30;;;7.10;99.90;;;;;;5042159;28;20610;-75
2024/02/24 10:37:36;;;;;;;1.10;1.10;;;7.10;99.90;;;;;;5033635;28;20461;-75
2024/02/24 10:40:04;;;;;;;3.23;1.30;;;7.00;99.90;;;;;;5036878;28;20474;-75
2024/02/24 10:42:29;;;;;;;2.30;1.60;;;6.80;99.90;;;;;;5037329;28;20228;-75
2024/02/24 10:44:55;;;;;;;3.23;1.70;;;6.70;99.90;;;;;;5042000;28;20458;-76
2024/02/24 10:47:22;;;;;;;2.97;1.50;;;6.80;99.90;;;;;;5033020;28;20640;-75
2024/02/24 10:49:48;;;;;;;1.47;1.37;;;6.90;99.90;;;;;;5039721;28;20606;-75
2024/02/24 10:52:20;;;;;;;1.40;1.00;;;7.00;99.90;;;;;;5034606;28;20985;-75
2024/02/24 10:54:50;;;;;;;0.80;0.80;;;7.10;99.90;;;;;;5042804;28;20267;-75
2024/02/24 10:57:18;;;;;;;1.17;0.73;;;7.30;99.90;;;;;;5035488;28;20467;-75
2024/02/24 10:59:43;;;;;;;1.37;1.10;;;7.40;99.90;;;;;;5041109;28;20491;-75
2024/02/24 11:02:11;;;;;;;1.30;1.20;;;7.60;99.90;;;;;;5037702;28;20468;-75
2024/02/24 11:04:39;;;;;;;1.50;1.40;;;7.60;99.90;;;;;;5052170;28;20227;-75
2024/02/24 11:07:16;;;;;;;3.13;2.60;;;7.50;99.90;;;;;;5033192;28;20505;-74
2024/02/24 11:09:46;;;;;;;1.70;1.40;;;7.60;99.90;;;;;;5037899;28;20473;-75
2024/02/24 11:12:13;;;;;;;2.23;1.20;;;7.60;99.90;;;;;;5033711;28;20462;-75
2024/02/24 11:14:46;;;;;;;1.07;0.90;;;7.60;99.90;;;;;;5038634;28;20468;-75
2024/02/24 11:17:12;;;;;;;6.13;1.40;;;7.70;99.90;;;;;;5032948;28;20470;-75
2024/02/24 11:19:45;;;;;;;2.93;0.80;;;7.90;99.90;;;;;;5037124;28;20475;-75
2024/02/24 11:22:18;;;;;;;2.77;0.93;;;8.10;99.90;;;;;;5018308;28;20496;-74
2024/02/24 11:24:45;;;;;;;4.33;0.90;;;8.20;99.90;;;;;;5038412;28;20474;-75
2024/02/24 11:27:11;;;;;;;0.60;0.60;;;8.30;99.90;;;;;;5035772;28;20471;-75
2024/02/24 11:29:38;;;;;;;1.07;0.57;;;8.40;99.90;;;;;;5038465;28;20465;-75
2024/02/24 11:32:05;;;;;;;0.60;0.43;;;8.40;99.90;;;;;;5034643;28;20504;-76
2024/02/24 11:34:35;;;;;;;3.13;0.50;;;8.60;99.90;;;;;;5037972;28;20938;-75
2024/02/24 11:37:01;;;;;;;2.27;1.33;;;8.70;99.90;;;;;;5046960;28;20482;-76
2024/02/24 11:39:29;;;;;;;0.50;0.40;;;8.80;99.90;;;;;;5024563;28;20552;-76
2024/02/24 11:41:55;;;;;;;0.90;0.70;;;8.90;99.90;;;;;;5045785;28;20538;-76
2024/02/24 11:44:21;;;;;;;1.93;0.63;;;9.00;99.90;;;;;;5027349;28;20481;-75
2024/02/24 11:46:47;;;;;;;0.40;0.40;;;9.10;99.90;;;;;;5042652;28;20507;-75
2024/02/24 11:49:14;;;;;;;0.90;0.57;;;9.30;99.90;;;;;;5046895;28;20562;-75
2024/02/24 11:51:40;;;;;;;0.53;0.53;;;9.30;99.90;;;;;;5042582;28;20538;-76
2024/02/24 11:54:07;;;;;;;1.33;1.30;;;9.20;99.90;;;;;;5046150;28;20553;-76
2024/02/24 11:56:35;;;;;;;1.23;1.13;;;9.10;99.90;;;;;;5045037;28;20299;-76
2024/02/24 11:59:01;;;;;;;0.90;0.90;;;9.00;99.90;;;;;;5042266;28;20450;-76
2024/02/24 12:01:29;;;;;;;0.73;0.73;;;8.90;99.90;;;;;;5044620;28;20442;-76
2024/02/24 12:03:57;;;;;;;0.70;0.70;;;8.90;99.90;;;;;;5046595;28;20219;-76
2024/02/24 12:06:25;;;;;;;0.67;0.67;;;8.90;99.90;;;;;;5043732;28;20462;-75
2024/02/24 12:08:51;;;;;;;0.60;0.60;;;8.90;99.90;;;;;;5044823;28;20468;-76
2024/02/24 12:11:17;;;;;;;1.10;1.00;;;8.80;99.90;;;;;;5041062;28;20473;-76
2024/02/24 12:13:48;;;;;;;0.60;0.47;;;8.80;99.90;;;;;;5042789;28;20442;-76
2024/02/24 12:16:14;;;;;;;0.83;0.60;;;9.00;99.90;;;;;;5048324;28;20504;-76
2024/02/24 12:18:43;;;;;;;1.47;0.67;;;9.00;99.90;;;;;;5046838;28;20501;-76
2024/02/24 12:21:12;;;;;;;1.23;0.70;;;9.00;99.90;;;;;;5047259;28;20305;-76
2024/02/24 12:23:40;;;;;;;0.70;0.70;;;9.20;99.90;;;;;;5044618;28;20466;-76
2024/02/24 12:26:20;;;;;;;0.40;0.40;;;9.30;99.90;;;;;;5041234;28;20470;-75
2024/02/24 12:28:47;;;;;;;0.67;0.60;;;9.40;99.90;;;;;;5054641;28;21026;-75
2024/02/24 12:31:13;;;;;;;0.40;0.40;;;9.40;99.90;;;;;;5035604;28;20469;-75
2024/02/24 12:33:42;;;;;;;0.50;0.47;;;9.40;99.90;;;;;;5042316;28;20457;-75
2024/02/24 12:36:10;;;;;;;1.70;0.53;;;9.40;99.90;;;;;;5038969;28;20545;-74
2024/02/24 12:38:36;;;;;;;0.60;0.60;;;9.50;99.90;;;;;;5040497;28;20877;-75
2024/02/24 12:41:14;;;;;;;0.73;0.50;;;9.60;99.90;;;;;;5040447;28;20478;-75
2024/02/24 12:43:41;;;;;;;0.70;0.63;;;9.70;99.90;;;;;;5039898;28;20481;-75
2024/02/24 12:46:07;;;;;;;1.10;1.00;;;9.60;99.90;;;;;;5039614;28;20447;-74
2024/02/24 12:48:34;;;;;;;2.30;2.10;;;9.50;99.90;;;;;;5041995;28;20537;-75
2024/02/24 12:51:00;;;;;;;2.97;2.10;;;9.50;99.90;;;;;;5040713;28;20467;-75
2024/02/24 12:53:27;;;;;;;24.50;12.07;;;9.40;99.90;;;;;;5040050;28;20485;-75